Time;durP1;ratioP1;P1;durP2;ratioP2;P2;SDS_P1;SDS_P2;PMS_P1;PMS_P2;Temp;Humidity;BMP_temperature;BMP_pressure;BME280_temperature;BME280_humidity;BME280_pressure;Samples;Min_cycle;Max_cycle;Signal;HPM_P1;HPM_P2
2023/10/19 00:00:48;;;;;;;25.50;21.60;;;;;;;;;;5143899;27;20078;-78
2023/10/19 00:03:15;;;;;;;25.90;19.60;;;;;;;;;;5143375;27;20106;-80
2023/10/19 00:05:41;;;;;;;25.17;21.17;;;;;;;;;;5178618;27;20042;-80
2023/10/19 00:08:15;;;;;;;24.40;21.25;;;;;;;;;;5160352;27;20074;-80
2023/10/19 00:10:48;;;;;;;25.65;20.55;;;;;;;;;;5161158;27;20050;-80
2023/10/19 00:13:14;;;;;;;27.77;22.30;;;;;;;;;;5160191;27;20046;-79
2023/10/19 00:15:46;;;;;;;28.27;22.35;;;;;;;;;;5160172;27;20064;-79
2023/10/19 00:23:18;;;;;;;25.60;20.70;;;;;;;;;;5159951;27;20501;-79
2023/10/19 00:25:54;;;;;;;28.90;23.17;;;;;;;;;;5159917;27;20485;-78
2023/10/19 00:28:22;;;;;;;25.55;22.15;;;;;;;;;;5160635;27;20046;-77
2023/10/19 00:30:51;;;;;;;28.00;22.85;;;;;;;;;;5159445;27;20079;-77
2023/10/19 00:33:21;;;;;;;29.25;24.30;;;;;;;;;;5177920;27;20072;-78
2023/10/19 00:35:58;;;;;;;28.95;24.00;;;;;;;;;;5178069;27;20050;-79
2023/10/19 00:38:39;;;;;;;29.25;23.38;;;;;;;;;;5160245;27;20125;-78
2023/10/19 00:43:33;;;;;;;28.50;24.92;;;;;;;;;;5159521;27;20053;-77
2023/10/19 00:46:05;;;;;;;26.35;23.33;;;;;;;;;;5142210;27;20082;-76
2023/10/19 00:48:32;;;;;;;30.95;24.42;;;;;;;;;;5158951;27;20141;-77
2023/10/19 00:51:09;;;;;;;28.10;24.98;;;;;;;;;;5159342;27;20086;-77
2023/10/19 00:53:39;;;;;;;32.80;24.05;;;;;;;;;;5159782;27;20363;-78
2023/10/19 00:56:09;;;;;;;31.95;24.15;;;;;;;;;;5178270;27;20102;-77
2023/10/19 00:58:36;;;;;;;29.92;25.05;;;;;;;;;;5177605;27;20046;-78
2023/10/19 01:01:05;;;;;;;28.77;23.20;;;;;;;;;;5159141;27;20046;-77
2023/10/19 01:03:36;;;;;;;28.67;25.10;;;;;;;;;;5159104;27;20062;-78
2023/10/19 01:06:06;;;;;;;33.28;25.85;;;;;;;;;;5159018;27;20551;-78
2023/10/19 01:08:41;;;;;;;32.15;25.88;;;;;;;;;;5158863;27;20048;-77
2023/10/19 01:11:10;;;;;;;30.40;24.98;;;;;;;;;;5143162;27;20046;-79
2023/10/19 01:13:37;;;;;;;29.85;26.60;;;;;;;;;;5159445;27;20046;-77
2023/10/19 01:16:04;;;;;;;31.48;26.50;;;;;;;;;;5158778;27;20044;-77
2023/10/19 01:18:33;;;;;;;35.17;27.10;;;;;;;;;;5159915;27;20042;-79
2023/10/19 01:21:06;;;;;;;31.73;25.80;;;;;;;;;;5159610;27;20046;-78
2023/10/19 01:23:35;;;;;;;32.72;26.92;;;;;;;;;;5158820;27;20077;-78
2023/10/19 01:26:07;;;;;;;30.80;22.02;;;;;;;;;;5177187;27;20059;-77
2023/10/19 01:31:07;;;;;;;32.53;26.65;;;;;;;;;;5159459;27;20054;-78
2023/10/19 01:33:36;;;;;;;29.77;26.58;;;;;;;;;;5176933;27;20046;-78
2023/10/19 01:36:14;;;;;;;33.25;26.10;;;;;;;;;;5140875;27;20489;-78
2023/10/19 01:38:41;;;;;;;28.25;24.50;;;;;;;;;;5158499;27;20046;-78
2023/10/19 01:41:18;;;;;;;32.08;27.08;;;;;;;;;;5158073;27;20085;-78
2023/10/19 01:43:46;;;;;;;36.53;29.08;;;;;;;;;;5158298;27;20057;-78
2023/10/19 01:46:13;;;;;;;35.97;26.98;;;;;;;;;;5141138;27;20046;-77
2023/10/19 01:48:40;;;;;;;29.38;25.52;;;;;;;;;;5154375;27;20055;-77
2023/10/19 01:51:10;;;;;;;30.85;25.65;;;;;;;;;;5137209;27;20053;-77
2023/10/19 01:53:39;;;;;;;36.25;26.85;;;;;;;;;;5154759;27;20054;-78
2023/10/19 01:56:05;;;;;;;41.55;27.27;;;;;;;;;;5154719;27;20490;-80
2023/10/19 01:58:36;;;;;;;28.77;23.75;;;;;;;;;;5155980;27;20103;-75
2023/10/19 02:01:07;;;;;;;30.40;25.15;;;;;;;;;;5156075;27;20046;-74
2023/10/19 02:03:35;;;;;;;27.35;23.77;;;;;;;;;;5155688;27;20043;-75
2023/10/19 02:06:10;;;;;;;25.23;22.23;;;;;;;;;;5154222;27;20103;-75
2023/10/19 02:08:38;;;;;;;26.90;23.33;;;;;;;;;;5155768;27;20046;-75
2023/10/19 02:11:13;;;;;;;28.77;24.63;;;;;;;;;;5154244;27;20050;-75
2023/10/19 02:13:40;;;;;;;27.50;22.80;;;;;;;;;;5155466;27;20050;-75
2023/10/19 02:16:06;;;;;;;24.98;22.00;;;;;;;;;;5154882;27;20065;-75
2023/10/19 02:18:34;;;;;;;25.10;21.88;;;;;;;;;;5155746;27;20501;-75
2023/10/19 02:21:06;;;;;;;23.85;21.35;;;;;;;;;;5154444;27;20043;-75
2023/10/19 02:23:35;;;;;;;26.20;22.48;;;;;;;;;;5155772;27;20053;-75
2023/10/19 02:26:03;;;;;;;24.73;22.13;;;;;;;;;;5155328;27;20082;-76
2023/10/19 02:28:31;;;;;;;26.83;22.23;;;;;;;;;;5154126;27;20429;-76
2023/10/19 02:31:10;;;;;;;25.08;22.40;;;;;;;;;;5155622;27;20142;-76
2023/10/19 02:33:36;;;;;;;26.80;23.30;;;;;;;;;;5154659;27;20095;-77
2023/10/19 02:36:03;;;;;;;27.17;23.00;;;;;;;;;;5155157;27;20402;-79
2023/10/19 02:38:30;;;;;;;23.80;21.20;;;;;;;;;;5154324;27;20038;-79
2023/10/19 02:40:56;;;;;;;30.60;22.00;;;;;;;;;;5153703;27;20087;-76
2023/10/19 02:43:26;;;;;;;23.83;20.80;;;;;;;;;;5155534;27;20062;-75
2023/10/19 02:45:53;;;;;;;23.80;20.38;;;;;;;;;;5155164;27;20042;-76
2023/10/19 02:48:19;;;;;;;24.77;19.83;;;;;;;;;;5153554;27;20541;-76
2023/10/19 02:50:46;;;;;;;24.15;20.20;;;;;;;;;;5155455;27;20503;-76
2023/10/19 02:53:13;;;;;;;23.40;20.50;;;;;;;;;;5153880;27;20517;-75
2023/10/19 02:55:40;;;;;;;22.70;20.30;;;;;;;;;;5157855;27;20046;-75
2023/10/19 02:58:06;;;;;;;22.55;20.15;;;;;;;;;;5158171;27;20039;-77
2023/10/19 03:00:34;;;;;;;25.38;22.67;;;;;;;;;;5159059;27;20050;-79
2023/10/19 03:03:00;;;;;;;25.30;21.95;;;;;;;;;;5158080;27;20418;-80
2023/10/19 03:05:27;;;;;;;25.90;22.80;;;;;;;;;;5141372;27;20545;-80
2023/10/19 03:07:53;;;;;;;25.30;21.80;;;;;;;;;;5140622;27;20034;-80
2023/10/19 03:10:23;;;;;;;25.83;22.13;;;;;;;;;;5158264;27;20072;-80
2023/10/19 03:12:53;;;;;;;25.33;21.98;;;;;;;;;;5158738;27;20046;-80
2023/10/19 03:15:21;;;;;;;27.17;23.98;;;;;;;;;;5140687;27;20046;-80
2023/10/19 03:17:47;;;;;;;84.82;35.42;;;;;;;;;;5157587;27;20043;-80
2023/10/19 03:20:16;;;;;;;26.65;23.35;;;;;;;;;;5157986;27;20038;-80
2023/10/19 03:22:43;;;;;;;30.73;26.02;;;;;;;;;;5157719;27;20050;-80
2023/10/19 03:27:55;;;;;;;27.65;24.58;;;;;;;;;;5158388;27;20073;-80
2023/10/19 03:30:25;;;;;;;25.65;22.95;;;;;;;;;;5139948;27;20098;-80
2023/10/19 03:32:51;;;;;;;28.60;23.67;;;;;;;;;;5157451;27;20121;-79
2023/10/19 03:35:17;;;;;;;27.95;24.38;;;;;;;;;;5140107;27;20058;-80
2023/10/19 03:37:47;;;;;;;26.90;24.08;;;;;;;;;;5157681;27;20485;-80
2023/10/19 03:40:17;;;;;;;27.83;23.27;;;;;;;;;;5140244;27;20379;-81
2023/10/19 03:42:46;;;;;;;25.95;23.15;;;;;;;;;;5156825;27;20133;-81
2023/10/19 03:45:15;;;;;;;27.45;24.38;;;;;;;;;;5140005;27;20082;-81
2023/10/19 03:47:43;;;;;;;27.75;24.15;;;;;;;;;;5156891;27;20059;-81
2023/10/19 03:50:14;;;;;;;28.13;24.55;;;;;;;;;;5158479;27;20047;-81
2023/10/19 03:52:40;;;;;;;28.25;23.70;;;;;;;;;;5140744;27;20039;-80
2023/10/19 03:55:11;;;;;;;28.40;24.35;;;;;;;;;;5158081;27;20163;-81
2023/10/19 03:57:41;;;;;;;28.00;24.05;;;;;;;;;;5157332;27;20050;-81
2023/10/19 04:00:14;;;;;;;67.78;31.00;;;;;;;;;;5158623;27;20047;-80
2023/10/19 04:02:42;;;;;;;26.35;22.92;;;;;;;;;;5157415;27;20424;-81
2023/10/19 04:05:14;;;;;;;25.80;22.77;;;;;;;;;;5156825;27;20486;-80
2023/10/19 04:07:41;;;;;;;25.20;22.52;;;;;;;;;;5139584;27;20381;-81
2023/10/19 04:12:38;;;;;;;23.73;20.88;;;;;;;;;;5157030;27;20054;-79
2023/10/19 04:15:16;;;;;;;24.88;21.25;;;;;;;;;;5157025;27;20054;-79
2023/10/19 04:17:43;;;;;;;23.40;20.77;;;;;;;;;;5157093;27;20054;-79
2023/10/19 04:22:45;;;;;;;23.58;21.10;;;;;;;;;;5157446;27;20054;-77
2023/10/19 04:25:12;;;;;;;27.67;21.08;;;;;;;;;;5155823;27;20046;-77
2023/10/19 04:27:42;;;;;;;21.23;19.13;;;;;;;;;;5156295;27;20470;-77
2023/10/19 04:30:24;;;;;;;23.15;20.40;;;;;;;;;;5157022;27;20050;-78
2023/10/19 04:32:50;;;;;;;20.20;17.92;;;;;;;;;;5156183;27;20455;-78
2023/10/19 04:35:30;;;;;;;21.65;19.45;;;;;;;;;;5139373;27;20379;-78
2023/10/19 04:37:56;;;;;;;26.05;20.85;;;;;;;;;;5156458;27;20057;-78
2023/10/19 04:40:23;;;;;;;21.00;18.85;;;;;;;;;;5156187;27;20050;-79
2023/10/19 04:42:51;;;;;;;23.15;20.38;;;;;;;;;;5155975;27;20051;-79
2023/10/19 04:45:17;;;;;;;25.45;21.83;;;;;;;;;;5156966;27;20049;-79
2023/10/19 04:47:43;;;;;;;22.92;20.33;;;;;;;;;;5155656;27;20055;-80
2023/10/19 04:50:13;;;;;;;24.05;21.65;;;;;;;;;;5155860;27;20107;-80
2023/10/19 04:52:39;;;;;;;23.20;20.75;;;;;;;;;;5155946;27;20402;-80
2023/10/19 04:55:06;;;;;;;24.92;22.08;;;;;;;;;;5155747;27;20046;-79
2023/10/19 04:57:32;;;;;;;23.75;21.38;;;;;;;;;;5155857;27;20047;-79
2023/10/19 04:59:58;;;;;;;22.23;19.85;;;;;;;;;;5156537;27;20137;-79
2023/10/19 05:02:24;;;;;;;22.02;19.92;;;;;;;;;;5155460;27;20125;-79
2023/10/19 05:04:50;;;;;;;22.50;20.10;;;;;;;;;;5156660;27;20050;-79
2023/10/19 05:07:16;;;;;;;25.05;20.58;;;;;;;;;;5138560;27;20531;-78
2023/10/19 05:09:43;;;;;;;22.40;19.98;;;;;;;;;;5155663;27;20095;-78
2023/10/19 05:12:09;;;;;;;22.63;20.33;;;;;;;;;;5156625;27;20046;-78
2023/10/19 05:14:39;;;;;;;23.13;20.40;;;;;;;;;;5155518;27;20054;-78
2023/10/19 05:17:06;;;;;;;21.17;19.02;;;;;;;;;;5156298;27;20050;-78
2023/10/19 05:19:35;;;;;;;21.00;18.85;;;;;;;;;;5156346;27;20054;-78
2023/10/19 05:22:02;;;;;;;20.40;18.50;;;;;;;;;;5155406;27;20183;-78
2023/10/19 05:24:29;;;;;;;20.98;18.95;;;;;;;;;;5155657;27;20125;-79
2023/10/19 05:26:56;;;;;;;44.85;24.67;;;;;;;;;;5137934;27;20039;-79
2023/10/19 05:29:23;;;;;;;22.67;20.25;;;;;;;;;;5154930;27;20043;-79
2023/10/19 05:31:53;;;;;;;22.70;20.30;;;;;;;;;;5138034;27;20042;-80
2023/10/19 05:34:23;;;;;;;21.98;19.67;;;;;;;;;;5154843;27;20054;-81
2023/10/19 05:36:49;;;;;;;29.75;22.55;;;;;;;;;;5155027;27;20050;-81
2023/10/19 05:39:16;;;;;;;22.40;20.10;;;;;;;;;;5155909;27;20042;-81
2023/10/19 05:41:42;;;;;;;58.67;28.38;;;;;;;;;;5155958;27;20099;-81
2023/10/19 05:44:08;;;;;;;28.00;22.33;;;;;;;;;;5137733;27;20042;-81
2023/10/19 05:46:35;;;;;;;23.45;21.00;;;;;;;;;;5155893;27;20138;-81
2023/10/19 05:49:03;;;;;;;24.88;22.25;;;;;;;;;;5154541;27;20115;-81
2023/10/19 05:51:30;;;;;;;23.48;21.08;;;;;;;;;;5156464;27;20094;-80
2023/10/19 05:54:01;;;;;;;26.80;22.67;;;;;;;;;;5154843;27;20035;-81
2023/10/19 05:56:28;;;;;;;23.95;21.35;;;;;;;;;;5121086;27;20038;-80
2023/10/19 05:58:54;;;;;;;40.80;24.77;;;;;;;;;;5155646;27;20057;-81
2023/10/19 06:01:22;;;;;;;26.23;23.48;;;;;;;;;;5155660;27;20134;-81
2023/10/19 06:03:48;;;;;;;44.50;28.85;;;;;;;;;;5154724;27;20051;-81
2023/10/19 06:06:14;;;;;;;26.95;23.55;;;;;;;;;;5154644;27;20047;-82
2023/10/19 06:08:41;;;;;;;27.13;24.33;;;;;;;;;;5154963;27;20043;-81
2023/10/19 06:11:07;;;;;;;27.20;24.33;;;;;;;;;;5154015;27;20513;-81
2023/10/19 06:13:33;;;;;;;33.10;26.08;;;;;;;;;;5155499;27;20046;-81
2023/10/19 06:15:59;;;;;;;27.50;24.60;;;;;;;;;;5154542;27;20123;-80
2023/10/19 06:18:29;;;;;;;27.70;23.80;;;;;;;;;;5137617;27;20047;-80
2023/10/19 06:20:55;;;;;;;81.03;35.60;;;;;;;;;;5154415;27;20050;-80
2023/10/19 06:23:21;;;;;;;30.60;27.38;;;;;;;;;;5154157;27;20047;-80
2023/10/19 06:25:47;;;;;;;27.13;24.23;;;;;;;;;;5154728;27;20051;-80
2023/10/19 06:28:13;;;;;;;33.28;27.83;;;;;;;;;;5154175;27;20038;-80
2023/10/19 06:30:40;;;;;;;28.75;25.65;;;;;;;;;;5157377;27;20061;-81
2023/10/19 06:33:06;;;;;;;39.83;29.13;;;;;;;;;;5158684;27;20089;-80
2023/10/19 06:35:33;;;;;;;62.67;32.38;;;;;;;;;;5158659;27;20035;-80
2023/10/19 06:38:00;;;;;;;32.28;27.30;;;;;;;;;;5158590;27;20099;-80
2023/10/19 06:40:26;;;;;;;28.70;25.70;;;;;;;;;;5158550;27;20535;-79
2023/10/19 06:42:53;;;;;;;45.85;30.58;;;;;;;;;;5160336;27;20101;-79
2023/10/19 06:45:19;;;;;;;31.88;27.95;;;;;;;;;;5158236;27;20478;-79
2023/10/19 06:47:47;;;;;;;32.50;27.77;;;;;;;;;;5164621;27;20137;-79
2023/10/19 06:50:15;;;;;;;43.85;30.60;;;;;;;;;;5180894;27;20098;-79
2023/10/19 06:52:42;;;;;;;44.17;31.10;;;;;;;;;;5161483;27;20092;-79
2023/10/19 06:55:22;;;;;;;44.83;31.52;;;;;;;;;;5161757;27;20046;-79
2023/10/19 06:57:58;;;;;;;34.70;29.83;;;;;;;;;;5162093;27;20042;-80
2023/10/19 07:00:28;;;;;;;34.67;28.38;;;;;;;;;;5161957;27;20375;-79
2023/10/19 07:03:00;;;;;;;48.35;32.47;;;;;;;;;;5144234;27;20042;-80
2023/10/19 07:05:29;;;;;;;34.47;29.60;;;;;;;;;;5161544;27;20046;-80
2023/10/19 07:07:56;;;;;;;51.80;34.20;;;;;;;;;;5179392;27;20046;-80
2023/10/19 07:10:23;;;;;;;61.42;34.08;;;;;;;;;;5161442;27;20122;-80
2023/10/19 07:12:51;;;;;;;37.10;31.23;;;;;;;;;;5161032;27;20054;-80
2023/10/19 07:15:22;;;;;;;44.08;32.88;;;;;;;;;;5144832;27;20046;-80
2023/10/19 07:17:48;;;;;;;40.15;31.85;;;;;;;;;;5162068;27;20058;-80
2023/10/19 07:20:36;;;;;;;37.92;31.77;;;;;;;;;;5162098;27;20042;-80
2023/10/19 07:23:09;;;;;;;41.60;33.50;;;;;;;;;;5162098;27;20072;-80
2023/10/19 07:25:45;;;;;;;38.83;32.28;;;;;;;;;;5145348;27;20078;-80
2023/10/19 07:28:16;;;;;;;106.53;42.33;;;;;;;;;;5128912;27;20111;-80
2023/10/19 07:30:46;;;;;;;42.67;32.72;;;;;;;;;;5161033;27;20473;-80
2023/10/19 07:33:19;;;;;;;36.03;31.85;;;;;;;;;;5161045;27;20062;-80
2023/10/19 07:35:46;;;;;;;35.72;30.23;;;;;;;;;;5161339;27;20125;-80
2023/10/19 07:38:22;;;;;;;40.60;31.15;;;;;;;;;;5161091;27;20053;-80
2023/10/19 07:40:52;;;;;;;42.00;32.55;;;;;;;;;;5160784;27;20078;-81
2023/10/19 07:43:19;;;;;;;34.08;29.60;;;;;;;;;;5160831;27;20125;-80
2023/10/19 07:45:46;;;;;;;36.47;30.52;;;;;;;;;;5143499;27;20075;-80
2023/10/19 07:48:13;;;;;;;36.42;30.00;;;;;;;;;;5143460;27;20054;-80
2023/10/19 07:50:43;;;;;;;54.20;33.60;;;;;;;;;;5179022;27;20493;-80
2023/10/19 07:53:09;;;;;;;42.92;31.60;;;;;;;;;;5161433;27;20050;-81
2023/10/19 07:55:36;;;;;;;47.72;34.95;;;;;;;;;;5160477;27;20133;-80
2023/10/19 07:58:03;;;;;;;34.38;29.50;;;;;;;;;;5160774;27;20140;-80
2023/10/19 08:00:29;;;;;;;38.85;32.92;;;;;;;;;;5143148;27;20094;-80
2023/10/19 08:02:56;;;;;;;36.42;31.40;;;;;;;;;;5160363;27;20490;-80
2023/10/19 08:05:22;;;;;;;41.05;33.65;;;;;;;;;;5160657;27;20479;-79
2023/10/19 08:07:48;;;;;;;40.50;31.55;;;;;;;;;;5159908;27;20039;-80
2023/10/19 08:10:16;;;;;;;41.38;33.33;;;;;;;;;;5160253;27;20397;-81
2023/10/19 08:12:42;;;;;;;77.28;40.10;;;;;;;;;;5179243;27;20175;-80
2023/10/19 08:15:12;;;;;;;56.33;37.92;;;;;;;;;;5160064;27;20091;-80
2023/10/19 08:17:56;;;;;;;40.40;32.88;;;;;;;;;;5159989;27;20496;-80
2023/10/19 08:20:32;;;;;;;47.50;36.20;;;;;;;;;;5143309;27;20081;-81
2023/10/19 08:22:58;;;;;;;38.00;32.97;;;;;;;;;;5160411;27;20123;-80
2023/10/19 08:25:28;;;;;;;45.08;37.08;;;;;;;;;;5178418;27;20046;-81
2023/10/19 08:27:57;;;;;;;52.53;38.55;;;;;;;;;;5143122;27;20071;-80
2023/10/19 08:30:24;;;;;;;39.38;34.83;;;;;;;;;;5142580;27;20367;-80
2023/10/19 08:32:51;;;;;;;43.40;37.60;;;;;;;;;;5160188;27;20456;-81
2023/10/19 08:35:20;;;;;;;45.70;37.13;;;;;;;;;;5178137;27;20046;-81
2023/10/19 08:37:48;;;;;;;43.05;36.90;;;;;;;;;;5159692;27;20088;-81
2023/10/19 08:40:18;;;;;;;39.63;34.65;;;;;;;;;;5178033;27;20125;-81
2023/10/19 08:42:47;;;;;;;56.65;38.47;;;;;;;;;;5159578;27;20064;-80
2023/10/19 08:45:16;;;;;;;68.45;42.95;;;;;;;;;;5142284;27;20049;-81
2023/10/19 08:48:02;;;;;;;45.10;37.30;;;;;;;;;;5159197;27;20125;-80
2023/10/19 08:50:29;;;;;;;43.70;36.95;;;;;;;;;;5177856;27;20053;-81
2023/10/19 08:52:57;;;;;;;41.90;37.22;;;;;;;;;;5158672;27;20045;-81
2023/10/19 08:55:23;;;;;;;43.58;38.20;;;;;;;;;;5159365;27;20047;-81
2023/10/19 08:57:49;;;;;;;48.85;39.53;;;;;;;;;;5159431;27;20050;-80
2023/10/19 09:00:19;;;;;;;43.80;37.78;;;;;;;;;;5159278;27;20038;-81
2023/10/19 09:02:48;;;;;;;50.88;40.30;;;;;;;;;;5177630;27;20397;-81
2023/10/19 09:05:25;;;;;;;47.45;39.58;;;;;;;;;;5177897;27;20510;-80
2023/10/19 09:07:55;;;;;;;57.20;40.97;;;;;;;;;;5159024;27;20046;-81
2023/10/19 09:10:25;;;;;;;61.45;42.03;;;;;;;;;;5141966;27;20095;-81
2023/10/19 09:13:02;;;;;;;44.63;38.03;;;;;;;;;;5142607;27;20053;-81
2023/10/19 09:15:35;;;;;;;43.75;36.40;;;;;;;;;;5159037;27;20039;-81
2023/10/19 09:18:14;;;;;;;44.95;37.67;;;;;;;;;;5159296;27;20398;-80
2023/10/19 09:20:56;;;;;;;55.22;39.95;;;;;;;;;;5158760;27;20046;-81
2023/10/19 09:23:23;;;;;;;69.45;43.75;;;;;;;;;;5159746;27;20050;-80
2023/10/19 09:25:49;;;;;;;46.67;37.80;;;;;;;;;;5158512;27;20378;-80
2023/10/19 09:28:17;;;;;;;68.78;44.50;;;;;;;;;;5177123;27;20362;-80
2023/10/19 09:30:44;;;;;;;47.85;37.75;;;;;;;;;;5158678;27;20050;-80
2023/10/19 09:33:10;;;;;;;59.15;41.65;;;;;;;;;;5158403;27;20556;-80
2023/10/19 09:35:37;;;;;;;119.13;53.30;;;;;;;;;;5158714;27;20038;-80
2023/10/19 09:38:07;;;;;;;46.70;40.05;;;;;;;;;;5141321;27;20454;-81
2023/10/19 09:40:34;;;;;;;53.58;41.05;;;;;;;;;;5158751;27;20470;-81
2023/10/19 09:43:04;;;;;;;49.13;39.67;;;;;;;;;;5158478;27;20042;-80
2023/10/19 09:45:30;;;;;;;81.85;44.53;;;;;;;;;;5176827;27;20038;-80
2023/10/19 09:47:56;;;;;;;52.45;39.65;;;;;;;;;;5157861;27;20061;-81
2023/10/19 09:50:22;;;;;;;49.28;41.22;;;;;;;;;;5177626;27;20435;-80
2023/10/19 09:52:51;;;;;;;49.72;38.85;;;;;;;;;;5140877;27;20042;-80
2023/10/19 09:55:23;;;;;;;85.75;46.92;;;;;;;;;;5159004;27;20042;-80
2023/10/19 09:58:04;;;;;;;56.58;42.13;;;;;;;;;;5176652;27;20042;-80
2023/10/19 10:00:34;;;;;;;82.13;47.63;;;;;;;;;;5157829;27;20046;-81
2023/10/19 10:03:02;;;;;;;55.13;41.25;;;;;;;;;;5158032;27;20078;-81
2023/10/19 10:05:44;;;;;;;47.83;39.90;;;;;;;;;;5141206;27;20102;-80
2023/10/19 10:08:20;;;;;;;47.33;40.00;;;;;;;;;;5157627;27;20038;-81
2023/10/19 10:10:46;;;;;;;53.65;42.67;;;;;;;;;;5157973;27;20077;-81
2023/10/19 10:13:28;;;;;;;66.07;44.20;;;;;;;;;;5157785;27;20542;-81
2023/10/19 10:15:55;;;;;;;70.68;45.08;;;;;;;;;;5157712;27;20386;-81
2023/10/19 10:18:21;;;;;;;50.35;39.65;;;;;;;;;;5157590;27;20053;-81
2023/10/19 10:20:50;;;;;;;45.10;38.92;;;;;;;;;;5176555;27;20038;-81
2023/10/19 10:23:32;;;;;;;44.80;37.45;;;;;;;;;;5141083;27;20489;-80
2023/10/19 10:25:58;;;;;;;41.10;35.45;;;;;;;;;;5141495;27;20129;-81
2023/10/19 10:28:25;;;;;;;52.95;38.33;;;;;;;;;;5157475;27;20088;-81
2023/10/19 10:31:13;;;;;;;42.15;36.85;;;;;;;;;;5157646;27;20375;-80
2023/10/19 10:33:39;;;;;;;38.88;34.67;;;;;;;;;;5176705;27;20481;-81
2023/10/19 10:36:06;;;;;;;40.35;35.00;;;;;;;;;;5140461;27;20125;-81
2023/10/19 10:38:35;;;;;;;39.08;34.83;;;;;;;;;;5176294;27;20485;-81
2023/10/19 10:41:01;;;;;;;37.10;33.17;;;;;;;;;;5157845;27;20046;-81
2023/10/19 10:43:28;;;;;;;35.75;31.95;;;;;;;;;;5140446;27;20042;-81
2023/10/19 10:46:03;;;;;;;37.55;33.45;;;;;;;;;;5157727;27;20073;-81
2023/10/19 10:48:30;;;;;;;43.58;35.80;;;;;;;;;;5175667;27;20397;-83
2023/10/19 10:50:56;;;;;;;37.88;33.55;;;;;;;;;;5140882;27;20066;-81
2023/10/19 10:53:26;;;;;;;37.47;33.22;;;;;;;;;;5157637;27;20046;-82
2023/10/19 10:55:53;;;;;;;38.10;34.17;;;;;;;;;;5157450;27;20046;-81
2023/10/19 10:58:20;;;;;;;41.00;35.92;;;;;;;;;;5157305;27;20038;-81
2023/10/19 11:00:54;;;;;;;45.03;37.40;;;;;;;;;;5157557;27;20095;-81
2023/10/19 11:03:22;;;;;;;46.72;37.88;;;;;;;;;;5142455;27;20057;-81
2023/10/19 11:05:48;;;;;;;39.58;35.28;;;;;;;;;;5123531;27;20050;-81
2023/10/19 11:08:16;;;;;;;40.13;35.75;;;;;;;;;;5176351;27;20500;-81
2023/10/19 11:10:43;;;;;;;40.10;35.80;;;;;;;;;;5140083;27;20042;-81
2023/10/19 11:13:11;;;;;;;44.35;37.83;;;;;;;;;;5156746;27;20046;-81
2023/10/19 11:15:37;;;;;;;46.17;36.60;;;;;;;;;;5158214;27;20046;-81
2023/10/19 11:18:04;;;;;;;46.53;39.05;;;;;;;;;;5179999;27;20078;-81
2023/10/19 11:20:30;;;;;;;45.38;38.78;;;;;;;;;;5161036;27;20049;-80
2023/10/19 11:23:00;;;;;;;43.40;37.70;;;;;;;;;;5160928;27;20508;-81
2023/10/19 11:25:31;;;;;;;43.35;38.65;;;;;;;;;;5179561;27;20501;-81
2023/10/19 11:28:04;;;;;;;42.10;37.65;;;;;;;;;;5161068;27;20487;-80
2023/10/19 11:30:31;;;;;;;41.72;37.42;;;;;;;;;;5143585;27;20117;-81
2023/10/19 11:32:59;;;;;;;43.58;37.58;;;;;;;;;;5179207;27;20042;-80
2023/10/19 11:35:27;;;;;;;41.50;37.35;;;;;;;;;;5144710;27;20046;-80
2023/10/19 11:37:57;;;;;;;42.47;37.92;;;;;;;;;;5143275;27;20038;-81
2023/10/19 11:40:23;;;;;;;40.88;36.63;;;;;;;;;;5160474;27;20478;-81
2023/10/19 11:42:56;;;;;;;38.15;33.85;;;;;;;;;;5160890;27;20046;-80
2023/10/19 11:45:25;;;;;;;38.00;34.25;;;;;;;;;;5143462;27;20052;-81
2023/10/19 11:47:53;;;;;;;39.95;35.83;;;;;;;;;;5160188;27;20054;-80
2023/10/19 11:50:19;;;;;;;39.08;35.28;;;;;;;;;;5160772;27;20484;-81
2023/10/19 11:52:46;;;;;;;37.40;33.70;;;;;;;;;;5160338;27;20046;-81
2023/10/19 11:55:16;;;;;;;37.97;33.90;;;;;;;;;;5160608;27;20050;-81
2023/10/19 11:57:45;;;;;;;38.55;34.72;;;;;;;;;;5143381;27;20475;-80
2023/10/19 12:00:21;;;;;;;40.97;36.85;;;;;;;;;;5178869;27;20094;-81
2023/10/19 12:02:47;;;;;;;37.80;33.92;;;;;;;;;;5144019;27;20057;-81
2023/10/19 12:05:14;;;;;;;38.58;34.63;;;;;;;;;;5160513;27;20446;-80
2023/10/19 12:07:40;;;;;;;37.83;34.20;;;;;;;;;;5178630;27;20095;-80
2023/10/19 12:10:10;;;;;;;40.33;36.15;;;;;;;;;;5160337;27;20042;-81
2023/10/19 12:12:37;;;;;;;42.00;37.60;;;;;;;;;;5161253;27;20038;-80
2023/10/19 12:15:07;;;;;;;39.92;35.92;;;;;;;;;;5160016;27;20379;-80
2023/10/19 12:17:33;;;;;;;41.83;37.33;;;;;;;;;;5160077;27;20081;-80
2023/10/19 12:19:59;;;;;;;38.30;34.50;;;;;;;;;;5178643;27;20121;-80
2023/10/19 12:22:32;;;;;;;39.30;35.35;;;;;;;;;;5160028;27;20045;-80
2023/10/19 12:24:59;;;;;;;36.45;32.65;;;;;;;;;;5144125;27;20481;-80
2023/10/19 12:27:25;;;;;;;39.50;35.58;;;;;;;;;;5159602;27;20175;-81
2023/10/19 12:29:54;;;;;;;40.05;36.00;;;;;;;;;;5178331;27;20049;-80
2023/10/19 12:32:21;;;;;;;38.50;34.45;;;;;;;;;;5159590;27;20614;-80
2023/10/19 12:34:53;;;;;;;42.58;38.08;;;;;;;;;;5178542;27;20061;-80
2023/10/19 12:37:19;;;;;;;40.30;36.10;;;;;;;;;;5160628;27;20053;-81
2023/10/19 12:39:49;;;;;;;39.58;35.65;;;;;;;;;;5142214;27;20098;-80
2023/10/19 12:42:15;;;;;;;40.58;36.42;;;;;;;;;;5142731;27;20397;-80
2023/10/19 12:44:41;;;;;;;40.72;36.35;;;;;;;;;;5178068;27;20050;-80
2023/10/19 12:47:10;;;;;;;42.20;37.65;;;;;;;;;;5142040;27;20140;-80
2023/10/19 12:49:46;;;;;;;43.20;37.50;;;;;;;;;;5158818;27;20066;-81
2023/10/19 12:52:14;;;;;;;40.97;36.60;;;;;;;;;;5159149;27;20042;-80
2023/10/19 12:54:43;;;;;;;38.25;34.28;;;;;;;;;;5159705;27;20061;-80
2023/10/19 12:57:09;;;;;;;40.83;34.80;;;;;;;;;;5159709;27;20077;-80
2023/10/19 12:59:39;;;;;;;36.78;32.88;;;;;;;;;;5158915;27;20053;-82
2023/10/19 13:02:14;;;;;;;39.20;35.00;;;;;;;;;;5177468;27;20046;-80
2023/10/19 13:04:42;;;;;;;44.63;36.95;;;;;;;;;;5159136;27;20034;-80
2023/10/19 13:07:10;;;;;;;49.45;37.30;;;;;;;;;;5159043;27;20042;-81
2023/10/19 13:09:36;;;;;;;43.58;35.22;;;;;;;;;;5177348;27;20429;-81
2023/10/19 13:12:07;;;;;;;42.88;34.20;;;;;;;;;;5177301;27;20091;-81
2023/10/19 13:14:34;;;;;;;39.80;33.85;;;;;;;;;;5159259;27;20073;-80
2023/10/19 13:17:00;;;;;;;37.65;33.58;;;;;;;;;;5159756;27;20056;-80
2023/10/19 13:19:26;;;;;;;42.00;34.85;;;;;;;;;;5177228;27;20403;-80
2023/10/19 13:21:53;;;;;;;42.13;33.60;;;;;;;;;;5124643;27;20046;-80
2023/10/19 13:24:20;;;;;;;40.47;34.60;;;;;;;;;;5159685;27;20041;-80
2023/10/19 13:26:47;;;;;;;39.10;34.63;;;;;;;;;;5159113;27;20140;-80
2023/10/19 13:29:15;;;;;;;41.70;34.67;;;;;;;;;;5158837;27;20134;-81
2023/10/19 13:31:41;;;;;;;37.25;33.25;;;;;;;;;;5158978;27;20049;-80
2023/10/19 13:34:10;;;;;;;46.30;35.03;;;;;;;;;;5141482;27;20050;-81
2023/10/19 13:36:36;;;;;;;40.58;33.40;;;;;;;;;;5141562;27;20053;-80
2023/10/19 13:39:06;;;;;;;39.78;32.50;;;;;;;;;;5141652;27;20042;-80
2023/10/19 13:41:32;;;;;;;38.65;32.58;;;;;;;;;;5159419;27;20034;-80
2023/10/19 13:43:58;;;;;;;37.63;32.78;;;;;;;;;;5158381;27;20042;-80
2023/10/19 13:46:25;;;;;;;38.33;33.08;;;;;;;;;;5158808;27;20098;-81
2023/10/19 13:48:51;;;;;;;38.55;33.25;;;;;;;;;;5158076;27;20053;-80
2023/10/19 13:51:19;;;;;;;38.85;32.72;;;;;;;;;;5158398;27;20042;-81
2023/10/19 13:53:45;;;;;;;38.15;34.05;;;;;;;;;;5158579;27;20055;-80
2023/10/19 13:56:11;;;;;;;39.97;35.10;;;;;;;;;;5158270;27;20053;-79
2023/10/19 13:58:38;;;;;;;38.78;34.03;;;;;;;;;;5158882;27;20059;-81
2023/10/19 14:01:11;;;;;;;37.35;33.33;;;;;;;;;;5158095;27;20050;-80
2023/10/19 14:03:40;;;;;;;42.33;35.78;;;;;;;;;;5176507;27;20092;-80
2023/10/19 14:06:12;;;;;;;43.78;35.45;;;;;;;;;;5158122;27;20167;-81
2023/10/19 14:08:38;;;;;;;43.78;35.40;;;;;;;;;;5158555;27;20050;-80
2023/10/19 14:11:04;;;;;;;38.67;34.35;;;;;;;;;;5158096;27;20056;-80
2023/10/19 14:13:30;;;;;;;41.25;34.10;;;;;;;;;;5176211;27;20470;-81
2023/10/19 14:15:56;;;;;;;43.35;33.95;;;;;;;;;;5176441;27;20042;-81
2023/10/19 14:18:23;;;;;;;44.40;35.33;;;;;;;;;;5157838;27;20042;-80
2023/10/19 14:20:49;;;;;;;43.67;34.20;;;;;;;;;;5157692;27;20092;-81
2023/10/19 14:23:15;;;;;;;62.05;39.00;;;;;;;;;;5158818;27;20042;-80
2023/10/19 14:25:42;;;;;;;40.20;32.85;;;;;;;;;;5157926;27;20042;-81
2023/10/19 14:28:09;;;;;;;40.97;32.33;;;;;;;;;;5157783;27;20038;-80
2023/10/19 14:30:35;;;;;;;51.25;35.63;;;;;;;;;;5158165;27;20056;-81
2023/10/19 14:33:02;;;;;;;69.75;40.13;;;;;;;;;;5140524;27;20389;-81
2023/10/19 14:35:28;;;;;;;60.22;37.28;;;;;;;;;;5157784;27;20094;-81
2023/10/19 14:37:56;;;;;;;38.75;31.33;;;;;;;;;;5176048;27;20043;-80
2023/10/19 14:40:26;;;;;;;36.63;30.75;;;;;;;;;;5157706;27;20058;-81
2023/10/19 14:42:59;;;;;;;58.60;34.58;;;;;;;;;;5141454;27;20103;-81